sensor_id;sensor_type;location;lat;lon;timestamp;P1;durP1;ratioP1;P2;durP2;ratioP2
15651;SDS011;7926;43.576;1.458;2022-10-16T00:01:26;0.40;;;0.40;;
15651;SDS011;7926;43.576;1.458;2022-10-16T00:03:55;0.40;;;0.40;;
15651;SDS011;7926;43.576;1.458;2022-10-16T00:06:23;0.40;;;0.40;;
15651;SDS011;7926;43.576;1.458;2022-10-16T00:08:51;0.40;;;0.40;;
15651;SDS011;7926;43.576;1.458;2022-10-16T00:11:19;0.40;;;0.40;;
15651;SDS011;7926;43.576;1.458;2022-10-16T00:13:47;0.40;;;0.40;;
15651;SDS011;7926;43.576;1.458;2022-10-16T00:16:15;0.37;;;0.37;;
15651;SDS011;7926;43.576;1.458;2022-10-16T00:18:43;0.40;;;0.40;;
15651;SDS011;7926;43.576;1.458;2022-10-16T00:21:13;0.40;;;0.40;;
15651;SDS011;7926;43.576;1.458;2022-10-16T00:23:41;0.40;;;0.40;;
15651;SDS011;7926;43.576;1.458;2022-10-16T00:26:09;0.40;;;0.40;;
15651;SDS011;7926;43.576;1.458;2022-10-16T00:28:37;0.40;;;0.40;;
15651;SDS011;7926;43.576;1.458;2022-10-16T00:31:05;0.40;;;0.40;;
15651;SDS011;7926;43.576;1.458;2022-10-16T00:33:32;0.40;;;0.40;;
15651;SDS011;7926;43.576;1.458;2022-10-16T00:36:00;0.40;;;0.40;;
15651;SDS011;7926;43.576;1.458;2022-10-16T00:38:29;0.40;;;0.40;;
15651;SDS011;7926;43.576;1.458;2022-10-16T00:40:56;0.40;;;0.40;;
15651;SDS011;7926;43.576;1.458;2022-10-16T00:43:34;0.40;;;0.40;;
15651;SDS011;7926;43.576;1.458;2022-10-16T00:46:03;0.40;;;0.40;;
15651;SDS011;7926;43.576;1.458;2022-10-16T00:48:31;0.40;;;0.40;;
15651;SDS011;7926;43.576;1.458;2022-10-16T00:50:58;0.40;;;0.40;;
15651;SDS011;7926;43.576;1.458;2022-10-16T00:53:26;0.40;;;0.40;;
15651;SDS011;7926;43.576;1.458;2022-10-16T00:55:55;0.40;;;0.40;;
15651;SDS011;7926;43.576;1.458;2022-10-16T00:58:22;0.40;;;0.40;;
15651;SDS011;7926;43.576;1.458;2022-10-16T01:00:50;0.40;;;0.40;;
15651;SDS011;7926;43.576;1.458;2022-10-16T01:03:24;0.40;;;0.40;;
15651;SDS011;7926;43.576;1.458;2022-10-16T01:05:54;0.40;;;0.40;;
15651;SDS011;7926;43.576;1.458;2022-10-16T01:08:27;0.40;;;0.40;;
15651;SDS011;7926;43.576;1.458;2022-10-16T01:10:59;0.40;;;0.40;;
15651;SDS011;7926;43.576;1.458;2022-10-16T01:13:32;0.40;;;0.40;;
15651;SDS011;7926;43.576;1.458;2022-10-16T01:16:03;0.40;;;0.40;;
15651;SDS011;7926;43.576;1.458;2022-10-16T01:18:33;0.40;;;0.40;;
15651;SDS011;7926;43.576;1.458;2022-10-16T01:21:03;0.37;;;0.37;;
15651;SDS011;7926;43.576;1.458;2022-10-16T01:23:35;0.40;;;0.40;;
15651;SDS011;7926;43.576;1.458;2022-10-16T01:26:31;0.40;;;0.40;;
15651;SDS011;7926;43.576;1.458;2022-10-16T01:29:03;0.40;;;0.40;;
15651;SDS011;7926;43.576;1.458;2022-10-16T01:31:34;0.40;;;0.40;;
15651;SDS011;7926;43.576;1.458;2022-10-16T01:34:03;0.40;;;0.40;;
15651;SDS011;7926;43.576;1.458;2022-10-16T01:36:34;0.40;;;0.40;;
15651;SDS011;7926;43.576;1.458;2022-10-16T01:39:04;0.40;;;0.40;;
15651;SDS011;7926;43.576;1.458;2022-10-16T01:41:33;0.40;;;0.40;;
15651;SDS011;7926;43.576;1.458;2022-10-16T01:44:04;0.40;;;0.40;;
15651;SDS011;7926;43.576;1.458;2022-10-16T01:46:32;0.40;;;0.40;;
15651;SDS011;7926;43.576;1.458;2022-10-16T01:49:01;0.40;;;0.40;;
15651;SDS011;7926;43.576;1.458;2022-10-16T01:51:29;0.40;;;0.40;;
15651;SDS011;7926;43.576;1.458;2022-10-16T01:53:57;0.40;;;0.40;;
15651;SDS011;7926;43.576;1.458;2022-10-16T01:56:25;0.40;;;0.40;;
15651;SDS011;7926;43.576;1.458;2022-10-16T01:58:54;0.40;;;0.40;;
15651;SDS011;7926;43.576;1.458;2022-10-16T02:01:24;0.30;;;0.30;;
15651;SDS011;7926;43.576;1.458;2022-10-16T02:03:54;0.40;;;0.40;;
15651;SDS011;7926;43.576;1.458;2022-10-16T02:06:22;0.40;;;0.40;;
15651;SDS011;7926;43.576;1.458;2022-10-16T02:08:50;0.30;;;0.30;;
15651;SDS011;7926;43.576;1.458;2022-10-16T02:11:18;0.40;;;0.40;;
15651;SDS011;7926;43.576;1.458;2022-10-16T02:13:46;0.33;;;0.33;;
15651;SDS011;7926;43.576;1.458;2022-10-16T02:16:15;0.40;;;0.40;;
15651;SDS011;7926;43.576;1.458;2022-10-16T02:18:43;0.40;;;0.40;;
15651;SDS011;7926;43.576;1.458;2022-10-16T02:21:13;0.30;;;0.30;;
15651;SDS011;7926;43.576;1.458;2022-10-16T02:23:42;0.40;;;0.40;;
15651;SDS011;7926;43.576;1.458;2022-10-16T02:26:13;0.40;;;0.40;;
15651;SDS011;7926;43.576;1.458;2022-10-16T02:28:42;0.40;;;0.40;;
15651;SDS011;7926;43.576;1.458;2022-10-16T02:31:11;0.40;;;0.40;;
15651;SDS011;7926;43.576;1.458;2022-10-16T02:33:40;0.40;;;0.40;;
15651;SDS011;7926;43.576;1.458;2022-10-16T02:36:10;0.40;;;0.40;;
15651;SDS011;7926;43.576;1.458;2022-10-16T02:38:38;0.40;;;0.40;;
15651;SDS011;7926;43.576;1.458;2022-10-16T02:41:06;0.30;;;0.30;;
15651;SDS011;7926;43.576;1.458;2022-10-16T02:43:34;0.30;;;0.30;;
15651;SDS011;7926;43.576;1.458;2022-10-16T02:46:01;0.30;;;0.30;;
15651;SDS011;7926;43.576;1.458;2022-10-16T02:48:28;0.30;;;0.30;;
15651;SDS011;7926;43.576;1.458;2022-10-16T02:50:56;0.40;;;0.40;;
15651;SDS011;7926;43.576;1.458;2022-10-16T02:53:24;0.30;;;0.30;;
15651;SDS011;7926;43.576;1.458;2022-10-16T02:55:52;0.30;;;0.30;;
15651;SDS011;7926;43.576;1.458;2022-10-16T02:58:19;0.40;;;0.40;;
15651;SDS011;7926;43.576;1.458;2022-10-16T03:00:46;0.30;;;0.30;;
15651;SDS011;7926;43.576;1.458;2022-10-16T03:03:14;0.40;;;0.40;;
15651;SDS011;7926;43.576;1.458;2022-10-16T03:05:42;0.40;;;0.40;;
15651;SDS011;7926;43.576;1.458;2022-10-16T03:08:10;0.40;;;0.40;;
15651;SDS011;7926;43.576;1.458;2022-10-16T03:10:39;0.33;;;0.33;;
15651;SDS011;7926;43.576;1.458;2022-10-16T03:13:06;0.30;;;0.30;;
15651;SDS011;7926;43.576;1.458;2022-10-16T03:15:34;0.40;;;0.40;;
15651;SDS011;7926;43.576;1.458;2022-10-16T03:18:01;0.30;;;0.30;;
15651;SDS011;7926;43.576;1.458;2022-10-16T03:20:28;0.30;;;0.30;;
15651;SDS011;7926;43.576;1.458;2022-10-16T03:22:56;0.37;;;0.37;;
15651;SDS011;7926;43.576;1.458;2022-10-16T03:25:23;0.30;;;0.30;;
15651;SDS011;7926;43.576;1.458;2022-10-16T03:27:52;0.30;;;0.30;;
15651;SDS011;7926;43.576;1.458;2022-10-16T03:30:19;0.30;;;0.30;;
15651;SDS011;7926;43.576;1.458;2022-10-16T03:32:46;0.30;;;0.30;;
15651;SDS011;7926;43.576;1.458;2022-10-16T03:35:13;0.30;;;0.30;;
15651;SDS011;7926;43.576;1.458;2022-10-16T03:37:41;0.40;;;0.40;;
15651;SDS011;7926;43.576;1.458;2022-10-16T03:40:08;0.30;;;0.30;;
15651;SDS011;7926;43.576;1.458;2022-10-16T03:42:36;0.30;;;0.30;;
15651;SDS011;7926;43.576;1.458;2022-10-16T03:45:05;0.30;;;0.30;;
15651;SDS011;7926;43.576;1.458;2022-10-16T03:47:33;0.30;;;0.30;;
15651;SDS011;7926;43.576;1.458;2022-10-16T03:50:00;0.40;;;0.40;;
15651;SDS011;7926;43.576;1.458;2022-10-16T03:52:28;0.30;;;0.30;;
15651;SDS011;7926;43.576;1.458;2022-10-16T03:54:57;0.30;;;0.30;;
15651;SDS011;7926;43.576;1.458;2022-10-16T03:57:24;0.30;;;0.30;;
15651;SDS011;7926;43.576;1.458;2022-10-16T03:59:51;0.30;;;0.30;;
15651;SDS011;7926;43.576;1.458;2022-10-16T04:02:20;0.30;;;0.30;;
15651;SDS011;7926;43.576;1.458;2022-10-16T04:04:47;0.20;;;0.20;;
15651;SDS011;7926;43.576;1.458;2022-10-16T04:07:15;0.30;;;0.30;;
15651;SDS011;7926;43.576;1.458;2022-10-16T04:09:42;0.30;;;0.30;;
15651;SDS011;7926;43.576;1.458;2022-10-16T04:12:10;0.27;;;0.27;;
15651;SDS011;7926;43.576;1.458;2022-10-16T04:14:37;0.30;;;0.30;;
15651;SDS011;7926;43.576;1.458;2022-10-16T04:17:04;0.30;;;0.30;;
15651;SDS011;7926;43.576;1.458;2022-10-16T04:19:33;0.30;;;0.30;;
15651;SDS011;7926;43.576;1.458;2022-10-16T04:22:00;0.30;;;0.30;;
15651;SDS011;7926;43.576;1.458;2022-10-16T04:24:28;0.30;;;0.30;;
15651;SDS011;7926;43.576;1.458;2022-10-16T04:26:55;0.30;;;0.30;;
15651;SDS011;7926;43.576;1.458;2022-10-16T04:29:23;0.30;;;0.30;;
15651;SDS011;7926;43.576;1.458;2022-10-16T04:31:50;0.30;;;0.30;;
15651;SDS011;7926;43.576;1.458;2022-10-16T04:34:17;0.30;;;0.30;;
15651;SDS011;7926;43.576;1.458;2022-10-16T04:36:48;0.30;;;0.30;;
15651;SDS011;7926;43.576;1.458;2022-10-16T04:39:15;0.30;;;0.30;;
15651;SDS011;7926;43.576;1.458;2022-10-16T04:41:43;0.30;;;0.30;;
15651;SDS011;7926;43.576;1.458;2022-10-16T04:44:10;0.30;;;0.30;;
15651;SDS011;7926;43.576;1.458;2022-10-16T04:46:37;0.30;;;0.30;;
15651;SDS011;7926;43.576;1.458;2022-10-16T04:49:05;0.30;;;0.30;;
15651;SDS011;7926;43.576;1.458;2022-10-16T04:51:32;0.23;;;0.23;;
15651;SDS011;7926;43.576;1.458;2022-10-16T04:54:01;0.30;;;0.30;;
15651;SDS011;7926;43.576;1.458;2022-10-16T04:56:28;0.30;;;0.30;;
15651;SDS011;7926;43.576;1.458;2022-10-16T04:58:56;0.30;;;0.30;;
15651;SDS011;7926;43.576;1.458;2022-10-16T05:01:23;0.30;;;0.30;;
15651;SDS011;7926;43.576;1.458;2022-10-16T05:03:50;0.30;;;0.30;;
15651;SDS011;7926;43.576;1.458;2022-10-16T05:06:17;0.20;;;0.20;;
15651;SDS011;7926;43.576;1.458;2022-10-16T05:08:45;0.30;;;0.30;;
15651;SDS011;7926;43.576;1.458;2022-10-16T05:11:13;0.30;;;0.30;;
15651;SDS011;7926;43.576;1.458;2022-10-16T05:13:41;0.20;;;0.20;;
15651;SDS011;7926;43.576;1.458;2022-10-16T05:16:08;0.20;;;0.20;;
15651;SDS011;7926;43.576;1.458;2022-10-16T05:18:35;0.30;;;0.30;;
15651;SDS011;7926;43.576;1.458;2022-10-16T05:21:03;0.30;;;0.30;;
15651;SDS011;7926;43.576;1.458;2022-10-16T05:23:30;0.27;;;0.27;;
15651;SDS011;7926;43.576;1.458;2022-10-16T05:25:58;0.20;;;0.20;;
15651;SDS011;7926;43.576;1.458;2022-10-16T05:28:28;0.20;;;0.20;;
15651;SDS011;7926;43.576;1.458;2022-10-16T05:30:56;0.30;;;0.30;;
15651;SDS011;7926;43.576;1.458;2022-10-16T05:33:24;0.20;;;0.20;;
15651;SDS011;7926;43.576;1.458;2022-10-16T05:35:52;0.20;;;0.20;;
15651;SDS011;7926;43.576;1.458;2022-10-16T05:38:19;0.20;;;0.20;;
15651;SDS011;7926;43.576;1.458;2022-10-16T05:40:50;0.30;;;0.30;;
15651;SDS011;7926;43.576;1.458;2022-10-16T05:43:18;0.30;;;0.30;;
15651;SDS011;7926;43.576;1.458;2022-10-16T05:45:54;0.27;;;0.27;;
15651;SDS011;7926;43.576;1.458;2022-10-16T05:48:21;0.20;;;0.20;;
15651;SDS011;7926;43.576;1.458;2022-10-16T05:50:55;0.20;;;0.20;;
15651;SDS011;7926;43.576;1.458;2022-10-16T05:53:23;0.20;;;0.20;;
15651;SDS011;7926;43.576;1.458;2022-10-16T05:55:52;0.20;;;0.20;;
15651;SDS011;7926;43.576;1.458;2022-10-16T05:58:19;0.20;;;0.20;;
15651;SDS011;7926;43.576;1.458;2022-10-16T06:00:53;0.20;;;0.20;;
15651;SDS011;7926;43.576;1.458;2022-10-16T06:03:21;0.20;;;0.20;;
15651;SDS011;7926;43.576;1.458;2022-10-16T06:05:48;0.20;;;0.20;;
15651;SDS011;7926;43.576;1.458;2022-10-16T06:08:16;0.20;;;0.20;;
15651;SDS011;7926;43.576;1.458;2022-10-16T06:10:44;0.20;;;0.20;;
15651;SDS011;7926;43.576;1.458;2022-10-16T06:13:12;0.20;;;0.20;;
15651;SDS011;7926;43.576;1.458;2022-10-16T06:15:39;0.20;;;0.20;;
15651;SDS011;7926;43.576;1.458;2022-10-16T06:18:08;0.20;;;0.20;;
15651;SDS011;7926;43.576;1.458;2022-10-16T06:20:36;0.20;;;0.20;;
15651;SDS011;7926;43.576;1.458;2022-10-16T06:23:04;0.20;;;0.20;;
15651;SDS011;7926;43.576;1.458;2022-10-16T06:25:31;0.20;;;0.20;;
15651;SDS011;7926;43.576;1.458;2022-10-16T06:27:58;0.30;;;0.30;;
15651;SDS011;7926;43.576;1.458;2022-10-16T06:30:25;0.20;;;0.20;;
15651;SDS011;7926;43.576;1.458;2022-10-16T06:32:53;0.20;;;0.20;;
15651;SDS011;7926;43.576;1.458;2022-10-16T06:35:22;0.20;;;0.20;;
15651;SDS011;7926;43.576;1.458;2022-10-16T06:37:49;0.20;;;0.20;;
15651;SDS011;7926;43.576;1.458;2022-10-16T06:40:16;0.20;;;0.20;;
15651;SDS011;7926;43.576;1.458;2022-10-16T06:42:44;0.20;;;0.20;;
15651;SDS011;7926;43.576;1.458;2022-10-16T06:45:17;0.20;;;0.20;;
15651;SDS011;7926;43.576;1.458;2022-10-16T06:47:44;0.20;;;0.20;;
15651;SDS011;7926;43.576;1.458;2022-10-16T06:50:12;0.20;;;0.20;;
15651;SDS011;7926;43.576;1.458;2022-10-16T06:52:41;0.20;;;0.20;;
15651;SDS011;7926;43.576;1.458;2022-10-16T06:55:08;0.20;;;0.20;;
15651;SDS011;7926;43.576;1.458;2022-10-16T06:57:37;0.20;;;0.20;;
15651;SDS011;7926;43.576;1.458;2022-10-16T07:00:11;0.20;;;0.20;;
15651;SDS011;7926;43.576;1.458;2022-10-16T07:02:38;0.20;;;0.20;;
15651;SDS011;7926;43.576;1.458;2022-10-16T07:05:06;0.20;;;0.20;;
15651;SDS011;7926;43.576;1.458;2022-10-16T07:07:33;0.20;;;0.20;;
15651;SDS011;7926;43.576;1.458;2022-10-16T07:10:02;0.20;;;0.20;;
15651;SDS011;7926;43.576;1.458;2022-10-16T07:12:30;0.20;;;0.20;;
15651;SDS011;7926;43.576;1.458;2022-10-16T07:14:57;0.17;;;0.17;;
15651;SDS011;7926;43.576;1.458;2022-10-16T07:17:24;0.20;;;0.20;;
15651;SDS011;7926;43.576;1.458;2022-10-16T07:19:52;0.20;;;0.20;;
15651;SDS011;7926;43.576;1.458;2022-10-16T07:22:20;0.10;;;0.10;;
15651;SDS011;7926;43.576;1.458;2022-10-16T07:24:47;0.20;;;0.20;;
15651;SDS011;7926;43.576;1.458;2022-10-16T07:27:18;0.20;;;0.20;;
15651;SDS011;7926;43.576;1.458;2022-10-16T07:29:47;0.20;;;0.20;;
15651;SDS011;7926;43.576;1.458;2022-10-16T07:32:14;0.20;;;0.20;;
15651;SDS011;7926;43.576;1.458;2022-10-16T07:34:42;0.20;;;0.20;;
15651;SDS011;7926;43.576;1.458;2022-10-16T07:37:10;0.20;;;0.20;;
15651;SDS011;7926;43.576;1.458;2022-10-16T07:39:38;0.10;;;0.10;;
15651;SDS011;7926;43.576;1.458;2022-10-16T07:42:05;0.20;;;0.20;;
15651;SDS011;7926;43.576;1.458;2022-10-16T07:44:34;0.20;;;0.20;;
15651;SDS011;7926;43.576;1.458;2022-10-16T07:47:01;0.20;;;0.20;;
15651;SDS011;7926;43.576;1.458;2022-10-16T07:49:29;0.20;;;0.20;;
15651;SDS011;7926;43.576;1.458;2022-10-16T07:51:56;0.20;;;0.20;;
15651;SDS011;7926;43.576;1.458;2022-10-16T07:54:23;0.20;;;0.20;;
15651;SDS011;7926;43.576;1.458;2022-10-16T07:56:51;0.20;;;0.20;;
15651;SDS011;7926;43.576;1.458;2022-10-16T07:59:18;0.20;;;0.20;;
15651;SDS011;7926;43.576;1.458;2022-10-16T08:02:00;0.20;;;0.20;;
15651;SDS011;7926;43.576;1.458;2022-10-16T08:04:52;0.20;;;0.20;;
15651;SDS011;7926;43.576;1.458;2022-10-16T08:07:20;0.20;;;0.20;;
15651;SDS011;7926;43.576;1.458;2022-10-16T08:09:48;0.20;;;0.20;;
15651;SDS011;7926;43.576;1.458;2022-10-16T08:12:18;0.20;;;0.20;;
15651;SDS011;7926;43.576;1.458;2022-10-16T08:14:45;0.20;;;0.20;;
15651;SDS011;7926;43.576;1.458;2022-10-16T08:17:14;0.20;;;0.20;;
15651;SDS011;7926;43.576;1.458;2022-10-16T08:19:43;0.20;;;0.20;;
15651;SDS011;7926;43.576;1.458;2022-10-16T08:22:11;0.20;;;0.20;;
15651;SDS011;7926;43.576;1.458;2022-10-16T08:24:39;0.20;;;0.20;;
15651;SDS011;7926;43.576;1.458;2022-10-16T08:27:06;0.20;;;0.20;;
15651;SDS011;7926;43.576;1.458;2022-10-16T08:29:34;0.20;;;0.20;;
15651;SDS011;7926;43.576;1.458;2022-10-16T08:32:03;0.20;;;0.20;;
15651;SDS011;7926;43.576;1.458;2022-10-16T08:34:32;0.20;;;0.20;;
15651;SDS011;7926;43.576;1.458;2022-10-16T08:36:59;0.20;;;0.20;;
15651;SDS011;7926;43.576;1.458;2022-10-16T08:39:27;0.10;;;0.10;;
15651;SDS011;7926;43.576;1.458;2022-10-16T08:42:04;0.20;;;0.20;;
15651;SDS011;7926;43.576;1.458;2022-10-16T08:44:37;0.20;;;0.20;;
15651;SDS011;7926;43.576;1.458;2022-10-16T08:47:13;0.17;;;0.17;;
15651;SDS011;7926;43.576;1.458;2022-10-16T08:49:47;0.20;;;0.20;;
15651;SDS011;7926;43.576;1.458;2022-10-16T08:52:18;0.20;;;0.20;;
15651;SDS011;7926;43.576;1.458;2022-10-16T08:54:46;0.20;;;0.20;;
15651;SDS011;7926;43.576;1.458;2022-10-16T08:57:15;0.20;;;0.20;;
15651;SDS011;7926;43.576;1.458;2022-10-16T08:59:45;0.20;;;0.20;;
15651;SDS011;7926;43.576;1.458;2022-10-16T09:02:18;0.20;;;0.20;;
15651;SDS011;7926;43.576;1.458;2022-10-16T09:05:05;0.20;;;0.20;;
15651;SDS011;7926;43.576;1.458;2022-10-16T09:07:38;0.10;;;0.10;;
15651;SDS011;7926;43.576;1.458;2022-10-16T09:10:11;0.20;;;0.20;;
15651;SDS011;7926;43.576;1.458;2022-10-16T09:12:43;0.20;;;0.20;;
15651;SDS011;7926;43.576;1.458;2022-10-16T09:15:14;0.20;;;0.20;;
15651;SDS011;7926;43.576;1.458;2022-10-16T09:17:46;0.10;;;0.10;;
15651;SDS011;7926;43.576;1.458;2022-10-16T09:20:20;0.20;;;0.20;;
15651;SDS011;7926;43.576;1.458;2022-10-16T09:22:51;0.20;;;0.20;;
15651;SDS011;7926;43.576;1.458;2022-10-16T09:25:20;0.20;;;0.20;;
15651;SDS011;7926;43.576;1.458;2022-10-16T09:27:48;0.20;;;0.20;;
15651;SDS011;7926;43.576;1.458;2022-10-16T09:30:19;0.20;;;0.20;;
15651;SDS011;7926;43.576;1.458;2022-10-16T09:32:48;0.20;;;0.20;;
15651;SDS011;7926;43.576;1.458;2022-10-16T09:35:19;0.20;;;0.20;;
15651;SDS011;7926;43.576;1.458;2022-10-16T09:37:47;0.20;;;0.20;;
15651;SDS011;7926;43.576;1.458;2022-10-16T09:40:24;0.20;;;0.20;;
15651;SDS011;7926;43.576;1.458;2022-10-16T09:42:52;0.20;;;0.20;;
15651;SDS011;7926;43.576;1.458;2022-10-16T09:45:23;0.20;;;0.20;;
15651;SDS011;7926;43.576;1.458;2022-10-16T09:48:10;0.20;;;0.20;;
15651;SDS011;7926;43.576;1.458;2022-10-16T09:50:58;0.20;;;0.20;;
15651;SDS011;7926;43.576;1.458;2022-10-16T09:53:37;0.20;;;0.20;;
15651;SDS011;7926;43.576;1.458;2022-10-16T09:56:05;0.20;;;0.20;;
15651;SDS011;7926;43.576;1.458;2022-10-16T09:58:32;0.20;;;0.20;;
15651;SDS011;7926;43.576;1.458;2022-10-16T10:01:00;0.20;;;0.20;;
15651;SDS011;7926;43.576;1.458;2022-10-16T10:03:33;0.20;;;0.20;;
15651;SDS011;7926;43.576;1.458;2022-10-16T10:06:05;0.20;;;0.20;;
15651;SDS011;7926;43.576;1.458;2022-10-16T10:08:33;0.20;;;0.20;;
15651;SDS011;7926;43.576;1.458;2022-10-16T10:11:00;0.20;;;0.20;;
15651;SDS011;7926;43.576;1.458;2022-10-16T10:13:29;0.20;;;0.20;;
15651;SDS011;7926;43.576;1.458;2022-10-16T10:15:57;0.20;;;0.20;;
15651;SDS011;7926;43.576;1.458;2022-10-16T10:18:25;0.20;;;0.20;;
15651;SDS011;7926;43.576;1.458;2022-10-16T10:20:59;0.20;;;0.20;;
15651;SDS011;7926;43.576;1.458;2022-10-16T10:23:29;0.20;;;0.20;;
15651;SDS011;7926;43.576;1.458;2022-10-16T10:25:57;0.20;;;0.20;;
15651;SDS011;7926;43.576;1.458;2022-10-16T10:28:39;0.20;;;0.20;;
15651;SDS011;7926;43.576;1.458;2022-10-16T10:31:11;0.20;;;0.20;;
15651;SDS011;7926;43.576;1.458;2022-10-16T10:33:44;0.20;;;0.20;;
15651;SDS011;7926;43.576;1.458;2022-10-16T10:36:32;0.20;;;0.20;;
15651;SDS011;7926;43.576;1.458;2022-10-16T10:39:04;0.10;;;0.10;;
15651;SDS011;7926;43.576;1.458;2022-10-16T10:44:23;0.20;;;0.20;;
15651;SDS011;7926;43.576;1.458;2022-10-16T10:46:54;0.30;;;0.30;;
15651;SDS011;7926;43.576;1.458;2022-10-16T10:52:11;0.20;;;0.20;;
15651;SDS011;7926;43.576;1.458;2022-10-16T10:54:45;0.20;;;0.20;;
15651;SDS011;7926;43.576;1.458;2022-10-16T10:57:19;0.20;;;0.20;;
15651;SDS011;7926;43.576;1.458;2022-10-16T10:59:58;0.23;;;0.23;;
15651;SDS011;7926;43.576;1.458;2022-10-16T11:02:30;0.20;;;0.20;;
15651;SDS011;7926;43.576;1.458;2022-10-16T11:05:16;0.20;;;0.20;;
15651;SDS011;7926;43.576;1.458;2022-10-16T11:07:47;0.30;;;0.30;;
15651;SDS011;7926;43.576;1.458;2022-10-16T11:10:20;0.23;;;0.23;;
15651;SDS011;7926;43.576;1.458;2022-10-16T11:12:49;0.20;;;0.20;;
15651;SDS011;7926;43.576;1.458;2022-10-16T11:15:18;0.20;;;0.20;;
15651;SDS011;7926;43.576;1.458;2022-10-16T11:17:48;0.20;;;0.20;;
15651;SDS011;7926;43.576;1.458;2022-10-16T11:20:19;0.20;;;0.20;;
15651;SDS011;7926;43.576;1.458;2022-10-16T11:22:48;0.23;;;0.23;;
15651;SDS011;7926;43.576;1.458;2022-10-16T11:25:19;0.20;;;0.20;;
15651;SDS011;7926;43.576;1.458;2022-10-16T11:27:49;0.30;;;0.30;;
15651;SDS011;7926;43.576;1.458;2022-10-16T11:30:19;0.30;;;0.30;;
15651;SDS011;7926;43.576;1.458;2022-10-16T11:32:53;0.30;;;0.30;;
15651;SDS011;7926;43.576;1.458;2022-10-16T11:35:23;0.25;;;0.25;;
15651;SDS011;7926;43.576;1.458;2022-10-16T11:37:51;0.30;;;0.30;;
15651;SDS011;7926;43.576;1.458;2022-10-16T11:40:23;0.30;;;0.30;;
15651;SDS011;7926;43.576;1.458;2022-10-16T11:42:54;0.30;;;0.30;;
15651;SDS011;7926;43.576;1.458;2022-10-16T11:45:24;0.30;;;0.30;;
15651;SDS011;7926;43.576;1.458;2022-10-16T11:47:54;0.30;;;0.30;;
15651;SDS011;7926;43.576;1.458;2022-10-16T11:50:25;0.30;;;0.30;;
15651;SDS011;7926;43.576;1.458;2022-10-16T11:52:54;0.30;;;0.30;;
15651;SDS011;7926;43.576;1.458;2022-10-16T11:55:24;0.30;;;0.30;;
15651;SDS011;7926;43.576;1.458;2022-10-16T11:57:57;0.30;;;0.30;;
15651;SDS011;7926;43.576;1.458;2022-10-16T12:00:30;0.20;;;0.20;;
15651;SDS011;7926;43.576;1.458;2022-10-16T12:03:12;0.30;;;0.30;;
15651;SDS011;7926;43.576;1.458;2022-10-16T12:05:49;0.30;;;0.30;;
15651;SDS011;7926;43.576;1.458;2022-10-16T12:08:20;0.20;;;0.20;;
15651;SDS011;7926;43.576;1.458;2022-10-16T12:10:51;0.20;;;0.20;;
15651;SDS011;7926;43.576;1.458;2022-10-16T12:13:36;0.30;;;0.30;;
15651;SDS011;7926;43.576;1.458;2022-10-16T12:16:04;0.30;;;0.30;;
15651;SDS011;7926;43.576;1.458;2022-10-16T12:18:32;0.30;;;0.30;;
15651;SDS011;7926;43.576;1.458;2022-10-16T12:20:59;0.38;;;0.38;;
15651;SDS011;7926;43.576;1.458;2022-10-16T12:23:30;0.40;;;0.40;;
15651;SDS011;7926;43.576;1.458;2022-10-16T12:26:00;0.40;;;0.40;;
15651;SDS011;7926;43.576;1.458;2022-10-16T12:28:29;0.40;;;0.40;;
15651;SDS011;7926;43.576;1.458;2022-10-16T12:30:57;0.32;;;0.32;;
15651;SDS011;7926;43.576;1.458;2022-10-16T12:33:25;0.40;;;0.40;;
15651;SDS011;7926;43.576;1.458;2022-10-16T12:35:53;0.40;;;0.40;;
15651;SDS011;7926;43.576;1.458;2022-10-16T12:38:21;0.40;;;0.40;;
15651;SDS011;7926;43.576;1.458;2022-10-16T12:40:54;0.40;;;0.40;;
15651;SDS011;7926;43.576;1.458;2022-10-16T12:43:37;0.40;;;0.40;;
15651;SDS011;7926;43.576;1.458;2022-10-16T12:46:21;0.40;;;0.40;;
15651;SDS011;7926;43.576;1.458;2022-10-16T12:48:48;0.40;;;0.40;;
15651;SDS011;7926;43.576;1.458;2022-10-16T12:51:23;0.40;;;0.40;;
15651;SDS011;7926;43.576;1.458;2022-10-16T12:56:38;0.40;;;0.40;;
15651;SDS011;7926;43.576;1.458;2022-10-16T12:59:11;0.40;;;0.40;;
15651;SDS011;7926;43.576;1.458;2022-10-16T13:01:43;0.40;;;0.40;;
15651;SDS011;7926;43.576;1.458;2022-10-16T13:04:20;0.40;;;0.40;;
15651;SDS011;7926;43.576;1.458;2022-10-16T13:06:51;0.40;;;0.40;;
15651;SDS011;7926;43.576;1.458;2022-10-16T13:09:28;0.50;;;0.50;;
15651;SDS011;7926;43.576;1.458;2022-10-16T13:12:06;0.40;;;0.40;;
15651;SDS011;7926;43.576;1.458;2022-10-16T13:14:42;0.40;;;0.40;;
15651;SDS011;7926;43.576;1.458;2022-10-16T13:17:16;0.50;;;0.50;;
15651;SDS011;7926;43.576;1.458;2022-10-16T13:19:51;0.50;;;0.50;;
15651;SDS011;7926;43.576;1.458;2022-10-16T13:22:23;0.50;;;0.50;;
15651;SDS011;7926;43.576;1.458;2022-10-16T13:24:58;0.40;;;0.40;;
15651;SDS011;7926;43.576;1.458;2022-10-16T13:27:31;0.45;;;0.45;;
15651;SDS011;7926;43.576;1.458;2022-10-16T13:30:10;0.40;;;0.40;;
15651;SDS011;7926;43.576;1.458;2022-10-16T13:32:38;0.50;;;0.50;;
15651;SDS011;7926;43.576;1.458;2022-10-16T13:35:17;0.40;;;0.40;;
15651;SDS011;7926;43.576;1.458;2022-10-16T13:37:45;0.50;;;0.50;;
15651;SDS011;7926;43.576;1.458;2022-10-16T13:40:17;0.40;;;0.40;;
15651;SDS011;7926;43.576;1.458;2022-10-16T13:42:45;0.50;;;0.50;;
15651;SDS011;7926;43.576;1.458;2022-10-16T13:45:20;0.40;;;0.40;;
15651;SDS011;7926;43.576;1.458;2022-10-16T13:47:48;0.50;;;0.50;;
15651;SDS011;7926;43.576;1.458;2022-10-16T13:50:16;0.50;;;0.50;;
15651;SDS011;7926;43.576;1.458;2022-10-16T13:52:44;0.50;;;0.50;;
15651;SDS011;7926;43.576;1.458;2022-10-16T13:55:12;0.50;;;0.50;;
15651;SDS011;7926;43.576;1.458;2022-10-16T13:57:39;0.50;;;0.50;;
15651;SDS011;7926;43.576;1.458;2022-10-16T14:00:22;0.50;;;0.50;;
15651;SDS011;7926;43.576;1.458;2022-10-16T14:02:51;0.50;;;0.50;;
15651;SDS011;7926;43.576;1.458;2022-10-16T14:05:20;0.50;;;0.50;;
15651;SDS011;7926;43.576;1.458;2022-10-16T14:07:48;0.50;;;0.50;;
15651;SDS011;7926;43.576;1.458;2022-10-16T14:10:20;0.50;;;0.50;;
15651;SDS011;7926;43.576;1.458;2022-10-16T14:12:54;0.50;;;0.50;;
15651;SDS011;7926;43.576;1.458;2022-10-16T14:15:23;0.50;;;0.50;;
15651;SDS011;7926;43.576;1.458;2022-10-16T14:17:51;0.47;;;0.47;;
15651;SDS011;7926;43.576;1.458;2022-10-16T14:20:20;0.57;;;0.57;;
15651;SDS011;7926;43.576;1.458;2022-10-16T14:22:57;0.47;;;0.47;;
15651;SDS011;7926;43.576;1.458;2022-10-16T14:25:28;0.50;;;0.50;;
15651;SDS011;7926;43.576;1.458;2022-10-16T14:28:02;0.40;;;0.40;;
15651;SDS011;7926;43.576;1.458;2022-10-16T14:30:32;0.50;;;0.50;;
15651;SDS011;7926;43.576;1.458;2022-10-16T14:33:00;0.50;;;0.50;;
15651;SDS011;7926;43.576;1.458;2022-10-16T14:35:29;0.50;;;0.50;;
15651;SDS011;7926;43.576;1.458;2022-10-16T14:37:57;0.47;;;0.47;;
15651;SDS011;7926;43.576;1.458;2022-10-16T14:40:25;0.50;;;0.50;;
15651;SDS011;7926;43.576;1.458;2022-10-16T14:42:53;0.40;;;0.40;;
15651;SDS011;7926;43.576;1.458;2022-10-16T14:45:21;0.50;;;0.50;;
15651;SDS011;7926;43.576;1.458;2022-10-16T14:47:51;0.50;;;0.50;;
15651;SDS011;7926;43.576;1.458;2022-10-16T14:50:19;0.43;;;0.43;;
15651;SDS011;7926;43.576;1.458;2022-10-16T14:52:47;0.50;;;0.50;;
15651;SDS011;7926;43.576;1.458;2022-10-16T14:55:14;0.50;;;0.50;;
15651;SDS011;7926;43.576;1.458;2022-10-16T14:57:42;0.40;;;0.40;;
15651;SDS011;7926;43.576;1.458;2022-10-16T15:00:13;0.40;;;0.40;;
15651;SDS011;7926;43.576;1.458;2022-10-16T15:02:41;0.40;;;0.40;;
15651;SDS011;7926;43.576;1.458;2022-10-16T15:05:15;0.40;;;0.40;;
15651;SDS011;7926;43.576;1.458;2022-10-16T15:07:43;0.40;;;0.40;;
15651;SDS011;7926;43.576;1.458;2022-10-16T15:10:11;0.40;;;0.40;;
15651;SDS011;7926;43.576;1.458;2022-10-16T15:12:38;0.40;;;0.40;;
15651;SDS011;7926;43.576;1.458;2022-10-16T15:15:15;0.30;;;0.30;;
15651;SDS011;7926;43.576;1.458;2022-10-16T15:17:48;0.30;;;0.30;;
15651;SDS011;7926;43.576;1.458;2022-10-16T15:20:19;0.30;;;0.30;;
15651;SDS011;7926;43.576;1.458;2022-10-16T15:22:46;0.40;;;0.40;;
15651;SDS011;7926;43.576;1.458;2022-10-16T15:25:16;0.30;;;0.30;;